Time;durP1;ratioP1;P1;durP2;ratioP2;P2;SDS_P1;SDS_P2;PMS_P1;PMS_P2;Temp;Humidity;BMP_temperature;BMP_pressure;BME280_temperature;BME280_humidity;BME280_pressure;Samples;Min_cycle;Max_cycle;Signal;HPM_P1;HPM_P2
2023/12/24 00:02:08;;;;;;;12.82;3.20;;;;;;;9.83;100.00;100717.00;5091428;28;20093;-67
2023/12/24 00:04:56;;;;;;;9.90;2.78;;;;;;;9.86;100.00;100726.53;5073456;28;20493;-68
2023/12/24 00:07:44;;;;;;;8.85;2.80;;;;;;;9.84;100.00;100715.94;5074441;28;20049;-68
2023/12/24 00:10:32;;;;;;;6.65;2.40;;;;;;;9.86;100.00;100723.81;5062120;28;20420;-68
2023/12/24 00:13:20;;;;;;;8.85;3.03;;;;;;;9.86;100.00;100716.50;5081447;28;20427;-67
2023/12/24 00:16:08;;;;;;;7.28;2.30;;;;;;;9.88;100.00;100741.50;5078663;28;20086;-68
2023/12/24 00:18:57;;;;;;;9.30;3.15;;;;;;;9.91;100.00;100734.72;5082404;28;20039;-67
2023/12/24 00:21:45;;;;;;;7.72;2.65;;;;;;;9.90;100.00;100733.91;5081703;28;20161;-67
2023/12/24 00:24:33;;;;;;;9.95;2.70;;;;;;;9.90;100.00;100733.09;5077399;28;20405;-67
2023/12/24 00:27:21;;;;;;;7.85;2.90;;;;;;;9.90;100.00;100733.91;5076548;28;20055;-67
2023/12/24 00:30:10;;;;;;;8.55;3.13;;;;;;;9.90;100.00;100717.56;5079295;28;20097;-67
2023/12/24 00:32:59;;;;;;;7.75;3.30;;;;;;;9.91;100.00;100721.13;5092022;28;20093;-67
2023/12/24 00:35:47;;;;;;;8.30;2.95;;;;;;;9.89;100.00;100698.81;5078209;28;20044;-68
2023/12/24 00:38:35;;;;;;;9.45;3.00;;;;;;;9.89;100.00;100693.38;5063065;28;20541;-67
2023/12/24 00:41:24;;;;;;;7.68;2.78;;;;;;;9.90;100.00;100692.28;5081234;28;20507;-68
2023/12/24 00:44:13;;;;;;;7.47;3.10;;;;;;;9.91;100.00;100688.44;5078436;28;20041;-68
2023/12/24 00:47:01;;;;;;;8.55;2.90;;;;;;;9.92;100.00;100665.63;5072212;28;20044;-67
2023/12/24 00:49:49;;;;;;;8.55;3.10;;;;;;;9.94;100.00;100638.94;5057889;28;20488;-67
2023/12/24 00:52:37;;;;;;;6.68;2.50;;;;;;;9.94;100.00;100630.78;5060239;28;20134;-67
2023/12/24 00:55:25;;;;;;;5.95;2.50;;;;;;;9.93;100.00;100608.22;5057441;28;20512;-67
2023/12/24 00:58:14;;;;;;;6.53;2.40;;;;;;;9.92;100.00;100620.16;5045767;28;20040;-67
2023/12/24 01:01:03;;;;;;;8.05;2.90;;;;;;;9.92;100.00;100609.28;5058140;28;20037;-66
2023/12/24 01:03:51;;;;;;;6.75;2.45;;;;;;;9.93;100.00;100596.47;5064838;28;20051;-67
2023/12/24 01:06:39;;;;;;;8.10;2.28;;;;;;;9.94;100.00;100598.94;5076952;28;20156;-67
2023/12/24 01:09:27;;;;;;;9.25;2.67;;;;;;;9.92;100.00;100587.50;5075902;28;20044;-68
2023/12/24 01:12:15;;;;;;;6.72;2.33;;;;;;;9.91;100.00;100575.00;5090086;28;20086;-68
2023/12/24 01:15:04;;;;;;;4.15;2.28;;;;;;;9.92;100.00;100587.50;5062817;28;20040;-68
2023/12/24 01:17:52;;;;;;;5.60;1.80;;;;;;;9.90;100.00;100602.47;5071046;28;20531;-67
2023/12/24 01:20:41;;;;;;;6.82;2.38;;;;;;;9.91;100.00;100599.50;5091610;28;20052;-66
2023/12/24 01:23:29;;;;;;;7.43;2.40;;;;;;;9.93;100.00;100602.75;5063905;28;20048;-68
2023/12/24 01:26:17;;;;;;;6.03;2.60;;;;;;;9.91;100.00;100585.03;5056590;28;20049;-68
2023/12/24 01:29:05;;;;;;;8.10;2.28;;;;;;;9.91;100.00;100576.88;5056021;28;20044;-67
2023/12/24 01:31:53;;;;;;;9.20;2.45;;;;;;;9.91;100.00;100593.19;5071543;28;20041;-67
2023/12/24 01:34:41;;;;;;;8.77;2.47;;;;;;;9.91;100.00;100598.66;5074976;28;20526;-67
2023/12/24 01:37:29;;;;;;;6.03;2.45;;;;;;;9.92;100.00;100597.56;5075558;28;20182;-67
2023/12/24 01:40:17;;;;;;;9.80;2.75;;;;;;;9.91;100.00;100595.94;5042365;28;20143;-68
2023/12/24 01:43:06;;;;;;;5.85;2.13;;;;;;;9.91;100.00;100598.66;5069294;28;20040;-68
2023/12/24 01:45:55;;;;;;;8.30;2.58;;;;;;;9.89;100.00;100600.84;5097282;28;20089;-67
2023/12/24 01:48:43;;;;;;;8.50;2.75;;;;;;;9.87;100.00;100597.56;5082736;28;20142;-67
2023/12/24 01:51:31;;;;;;;10.38;2.70;;;;;;;9.86;100.00;100596.75;5096357;28;20056;-67
2023/12/24 01:54:19;;;;;;;10.68;3.20;;;;;;;9.82;100.00;100601.91;5095524;28;20294;-67
2023/12/24 01:57:07;;;;;;;7.85;2.70;;;;;;;9.81;100.00;100602.16;5082611;28;20052;-67
2023/12/24 01:59:55;;;;;;;12.60;3.05;;;;;;;9.81;100.00;100597.56;5075749;28;20045;-68
2023/12/24 02:02:44;;;;;;;8.50;2.80;;;;;;;9.79;100.00;100602.44;5073468;28;20040;-68
2023/12/24 02:05:32;;;;;;;8.45;3.03;;;;;;;9.81;100.00;100616.59;5042933;28;20546;-68
2023/12/24 02:08:21;;;;;;;8.32;2.95;;;;;;;9.80;100.00;100604.06;5055671;28;20134;-68
2023/12/24 02:11:10;;;;;;;9.15;3.10;;;;;;;9.80;100.00;100590.47;5072917;28;20048;-68
2023/12/24 02:13:58;;;;;;;11.27;3.25;;;;;;;9.78;100.00;100589.91;5089717;28;20478;-67
2023/12/24 02:16:47;;;;;;;8.85;3.47;;;;;;;9.77;100.00;100582.84;5090564;28;20042;-68
2023/12/24 02:19:35;;;;;;;6.88;2.83;;;;;;;9.74;100.00;100575.22;5078769;28;20105;-68
2023/12/24 02:22:23;;;;;;;10.05;3.10;;;;;;;9.74;100.00;100567.06;5066567;28;20177;-69
2023/12/24 02:25:11;;;;;;;9.05;3.10;;;;;;;9.74;100.00;100564.34;5095536;28;20047;-68
2023/12/24 02:28:03;;;;;;;10.18;3.20;;;;;;;9.77;100.00;100563.81;5097476;28;20424;-68
2023/12/24 02:30:57;;;;;;;11.75;3.30;;;;;;;9.78;100.00;100561.91;5052706;28;20124;-67
2023/12/24 02:33:46;;;;;;;8.73;3.00;;;;;;;9.74;100.00;100564.34;5052259;28;20123;-68
2023/12/24 02:36:35;;;;;;;10.35;3.05;;;;;;;9.73;100.00;100559.97;5093963;28;20040;-67
2023/12/24 02:39:23;;;;;;;8.30;2.92;;;;;;;9.75;100.00;100549.66;5065709;28;20058;-67
2023/12/24 02:42:11;;;;;;;10.52;3.10;;;;;;;9.75;100.00;100546.13;5079995;28;20520;-66
2023/12/24 02:44:59;;;;;;;7.88;3.22;;;;;;;9.78;100.00;100540.94;5086290;28;20405;-67
2023/12/24 02:47:47;;;;;;;7.82;2.78;;;;;;;9.78;100.00;100530.06;5086658;28;20044;-67
2023/12/24 02:50:37;;;;;;;8.73;2.90;;;;;;;9.74;100.00;100512.66;5079084;28;20123;-67
2023/12/24 02:53:25;;;;;;;10.27;2.90;;;;;;;9.76;100.00;100518.63;5093801;28;20448;-67
2023/12/24 02:56:13;;;;;;;8.48;3.03;;;;;;;9.77;100.00;100512.09;5095189;28;20392;-66
2023/12/24 02:59:02;;;;;;;6.60;2.78;;;;;;;9.77;100.00;100512.09;5084341;28;20042;-68
2023/12/24 03:01:51;;;;;;;7.93;2.85;;;;;;;9.73;100.00;100516.44;5099605;28;20051;-67
2023/12/24 03:04:39;;;;;;;8.85;2.88;;;;;;;9.72;100.00;100509.38;5112376;28;20061;-68
2023/12/24 03:07:28;;;;;;;7.63;2.60;;;;;;;9.72;100.00;100517.53;5077155;28;20045;-68
2023/12/24 03:10:16;;;;;;;7.20;2.53;;;;;;;9.73;100.00;100512.91;5060659;28;20659;-66
2023/12/24 03:13:04;;;;;;;8.07;3.00;;;;;;;9.72;100.00;100508.56;5079295;28;20040;-67
2023/12/24 03:15:52;;;;;;;7.82;2.90;;;;;;;9.72;100.00;100492.25;5060109;28;20036;-68
2023/12/24 03:18:40;;;;;;;5.75;2.00;;;;;;;9.74;100.00;100492.78;5064960;28;20158;-67
2023/12/24 03:21:28;;;;;;;7.85;2.30;;;;;;;9.73;100.00;100488.44;5094591;28;20044;-66
2023/12/24 03:24:16;;;;;;;5.38;2.25;;;;;;;9.73;100.00;100483.00;5071973;28;20127;-63
2023/12/24 03:27:04;;;;;;;7.30;2.47;;;;;;;9.72;100.00;100482.19;5100385;28;20107;-65
2023/12/24 03:29:53;;;;;;;5.28;2.08;;;;;;;9.71;100.00;100477.00;5067518;28;20075;-67
2023/12/24 03:32:42;;;;;;;5.80;2.03;;;;;;;9.71;100.00;100466.13;5080650;28;20048;-68
2023/12/24 03:35:30;;;;;;;4.85;2.00;;;;;;;9.70;100.00;100470.75;5109789;28;20066;-64
2023/12/24 03:38:20;;;;;;;3.15;2.03;;;;;;;9.70;100.00;100478.91;5113140;28;20043;-64
2023/12/24 03:41:09;;;;;;;3.90;2.20;;;;;;;9.70;100.00;100467.22;5090043;28;20048;-66
2023/12/24 03:43:57;;;;;;;6.72;2.30;;;;;;;9.69;100.00;100462.84;5073665;28;20126;-67
2023/12/24 03:46:45;;;;;;;3.30;1.98;;;;;;;9.69;100.00;100455.53;5094014;28;20048;-68
2023/12/24 03:49:33;;;;;;;4.63;1.67;;;;;;;9.69;100.00;100450.09;5071328;28;20356;-67
2023/12/24 03:52:21;;;;;;;3.88;1.50;;;;;;;9.71;100.00;100455.22;5078008;28;20182;-67
2023/12/24 03:55:09;;;;;;;3.72;1.95;;;;;;;9.70;100.00;100457.16;5077380;28;20070;-67
2023/12/24 03:57:58;;;;;;;3.63;1.88;;;;;;;9.70;100.00;100451.69;5077225;28;20484;-67
2023/12/24 04:00:46;;;;;;;2.45;1.70;;;;;;;9.72;100.00;100454.97;5064072;28;20048;-68
2023/12/24 04:03:34;;;;;;;3.08;1.65;;;;;;;9.72;100.00;100451.44;5065847;28;20045;-68
2023/12/24 04:06:22;;;;;;;1.92;1.48;;;;;;;9.75;100.00;100443.53;5086513;28;20044;-68
2023/12/24 04:09:10;;;;;;;3.47;1.83;;;;;;;9.72;100.00;100440.56;5046687;28;20051;-68
2023/12/24 04:11:59;;;;;;;2.30;2.03;;;;;;;9.70;100.00;100450.91;5091570;28;20458;-68
2023/12/24 04:14:48;;;;;;;2.15;1.80;;;;;;;9.68;100.00;100442.19;5078371;28;20051;-68
2023/12/24 04:17:36;;;;;;;4.70;2.35;;;;;;;9.67;100.00;100438.66;5078331;28;20066;-68
2023/12/24 04:20:24;;;;;;;1.45;1.35;;;;;;;9.73;100.00;100428.56;5091927;28;20044;-68
2023/12/24 04:23:13;;;;;;;2.03;1.90;;;;;;;9.73;100.00;100429.38;5086184;28;20492;-66
2023/12/24 04:26:01;;;;;;;2.20;2.03;;;;;;;9.73;100.00;100429.38;5077778;28;20044;-67
2023/12/24 04:28:49;;;;;;;3.00;2.20;;;;;;;9.73;100.00;100429.38;5076297;28;20492;-67
2023/12/24 04:31:40;;;;;;;2.88;2.05;;;;;;;9.73;100.00;100429.38;5058456;28;20048;-67
2023/12/24 04:34:28;;;;;;;2.10;1.90;;;;;;;9.75;100.00;100429.94;5073127;28;20093;-67
2023/12/24 04:37:16;;;;;;;2.00;1.80;;;;;;;9.73;100.00;100421.22;5092137;28;20468;-68
2023/12/24 04:40:05;;;;;;;2.28;2.05;;;;;;;9.76;100.00;100428.84;5049513;28;20411;-68
2023/12/24 04:42:54;;;;;;;2.17;1.98;;;;;;;9.75;100.00;100420.97;5070964;28;20123;-67
2023/12/24 04:45:42;;;;;;;2.20;1.60;;;;;;;9.76;100.00;100417.16;5057419;28;20436;-67
2023/12/24 04:48:30;;;;;;;2.55;1.77;;;;;;;9.76;100.00;100425.31;5056714;28;20105;-68
2023/12/24 04:51:22;;;;;;;1.60;1.50;;;;;;;9.77;100.00;100414.16;5065949;28;20202;-67
2023/12/24 04:54:10;;;;;;;2.97;1.67;;;;;;;9.77;100.00;100424.22;5071555;28;20052;-67
2023/12/24 04:56:59;;;;;;;1.55;1.48;;;;;;;9.77;100.00;100418.78;5064224;28;20048;-66
2023/12/24 04:59:47;;;;;;;1.00;1.00;;;;;;;9.78;100.00;100415.78;5056745;28;20047;-65
2023/12/24 05:02:35;;;;;;;2.85;1.33;;;;;;;9.77;100.00;100414.16;5085762;28;20492;-66
2023/12/24 05:05:24;;;;;;;2.13;1.88;;;;;;;9.77;100.00;100413.34;5076924;28;20044;-66
2023/12/24 05:08:12;;;;;;;1.60;1.50;;;;;;;9.78;100.00;100410.34;5077463;28;20044;-67
2023/12/24 05:11:05;;;;;;;1.42;1.33;;;;;;;9.77;100.00;100405.19;5091107;28;20051;-66
2023/12/24 05:13:53;;;;;;;1.65;1.35;;;;;;;9.77;100.00;100394.31;5046000;28;20058;-66
2023/12/24 05:16:41;;;;;;;2.08;1.40;;;;;;;9.77;100.00;100408.72;5044014;28;20464;-67
2023/12/24 05:19:29;;;;;;;1.50;1.40;;;;;;;9.79;100.00;100406.53;5043162;28;20072;-65
2023/12/24 05:22:18;;;;;;;1.30;1.30;;;;;;;9.76;100.00;100401.63;5051487;28;20391;-64
2023/12/24 05:25:06;;;;;;;1.40;1.30;;;;;;;9.76;100.00;100398.91;5075350;28;20040;-66
2023/12/24 05:27:54;;;;;;;1.45;1.40;;;;;;;9.76;100.00;100400.81;5092578;28;20174;-66
2023/12/24 05:30:42;;;;;;;1.42;1.38;;;;;;;9.76;100.00;100398.91;5091017;28;20043;-67
2023/12/24 05:33:30;;;;;;;1.33;1.33;;;;;;;9.77;100.00;100395.13;5087997;28;20047;-66
2023/12/24 05:36:18;;;;;;;1.27;1.23;;;;;;;9.77;100.00;100399.75;5091393;28;20052;-66
2023/12/24 05:39:06;;;;;;;1.48;1.38;;;;;;;9.80;100.00;100401.91;5076392;28;20050;-66
2023/12/24 05:41:54;;;;;;;1.67;1.58;;;;;;;9.78;100.00;100402.19;5076302;28;20052;-65
2023/12/24 05:44:42;;;;;;;1.13;1.13;;;;;;;9.79;100.00;100397.56;5107529;28;20519;-67
2023/12/24 05:47:30;;;;;;;1.40;1.38;;;;;;;9.77;100.00;100400.56;5062633;28;20466;-66
2023/12/24 05:50:18;;;;;;;1.63;1.38;;;;;;;9.78;100.00;100399.47;5057846;28;20091;-67
2023/12/24 05:53:06;;;;;;;1.55;1.50;;;;;;;9.81;100.00;100390.78;5058188;28;20394;-66
2023/12/24 05:55:54;;;;;;;1.42;1.35;;;;;;;9.84;100.00;100385.84;5061680;28;20067;-68
2023/12/24 05:58:42;;;;;;;1.80;1.65;;;;;;;9.79;100.00;100390.22;5073335;28;20056;-67
2023/12/24 06:01:30;;;;;;;1.42;1.40;;;;;;;9.77;100.00;100391.59;5078920;28;20132;-65
2023/12/24 06:04:18;;;;;;;1.55;1.45;;;;;;;9.76;100.00;100384.50;5070893;28;20040;-66
2023/12/24 06:07:06;;;;;;;1.63;1.50;;;;;;;9.76;100.00;100387.22;5094116;28;20186;-67
2023/12/24 06:09:54;;;;;;;1.35;1.35;;;;;;;9.77;100.00;100386.97;5086097;28;20056;-65
2023/12/24 06:12:43;;;;;;;1.15;1.15;;;;;;;9.80;100.00;100388.31;5063402;28;20049;-66
2023/12/24 06:15:31;;;;;;;1.35;1.35;;;;;;;9.83;100.00;100398.63;5070359;28;20118;-66
2023/12/24 06:18:19;;;;;;;1.02;1.02;;;;;;;9.86;100.00;100386.38;5092478;28;20101;-65
2023/12/24 06:21:09;;;;;;;1.30;1.20;;;;;;;9.87;100.00;100379.88;5080839;28;20523;-66
2023/12/24 06:23:57;;;;;;;1.35;1.25;;;;;;;9.86;100.00;100380.94;5067870;28;20055;-65
2023/12/24 06:26:45;;;;;;;1.30;1.20;;;;;;;9.87;100.00;100379.88;5081562;28;20134;-66
2023/12/24 06:29:35;;;;;;;1.90;1.20;;;;;;;9.87;100.00;100375.25;5080066;28;20058;-64
2023/12/24 06:32:23;;;;;;;1.23;1.20;;;;;;;9.88;100.00;100376.06;5060034;28;20257;-64
2023/12/24 06:35:12;;;;;;;2.00;1.40;;;;;;;9.90;100.00;100371.16;5047976;28;20044;-68
2023/12/24 06:38:00;;;;;;;1.10;1.00;;;;;;;9.91;100.00;100375.50;5074465;28;20132;-65
2023/12/24 06:40:48;;;;;;;1.98;1.20;;;;;;;9.91;100.00;100360.00;5092658;28;20052;-66
2023/12/24 06:43:39;;;;;;;1.45;1.35;;;;;;;9.92;100.00;100371.69;5094312;28;20186;-66
2023/12/24 06:46:27;;;;;;;1.50;1.27;;;;;;;9.91;100.00;100370.06;5080453;28;20135;-66
2023/12/24 06:49:16;;;;;;;2.85;1.45;;;;;;;9.92;100.00;100374.41;5048640;28;20044;-66
2023/12/24 06:52:04;;;;;;;1.63;1.52;;;;;;;9.91;100.00;100362.72;5094353;28;20044;-65
2023/12/24 06:54:52;;;;;;;6.57;2.13;;;;;;;9.94;100.00;100362.16;5102171;28;20065;-66
2023/12/24 06:57:40;;;;;;;2.88;1.83;;;;;;;9.94;100.00;100369.53;5094363;28;20503;-66
2023/12/24 07:00:28;;;;;;;2.75;1.58;;;;;;;9.97;100.00;100377.13;5073308;28;20058;-66
2023/12/24 07:03:17;;;;;;;6.03;2.13;;;;;;;9.95;100.00;100368.41;5092739;28;20602;-66
2023/12/24 07:06:05;;;;;;;1.67;1.58;;;;;;;9.95;100.00;100365.69;5083494;28;20074;-66
2023/12/24 07:08:53;;;;;;;1.23;1.20;;;;;;;9.95;100.00;100362.97;5094573;28;20094;-66
2023/12/24 07:11:41;;;;;;;1.50;1.40;;;;;;;9.94;100.00;100366.81;5092733;28;20089;-67
2023/12/24 07:14:29;;;;;;;1.60;1.50;;;;;;;9.94;100.00;100370.34;5092983;28;20052;-66
2023/12/24 07:17:17;;;;;;;1.73;1.63;;;;;;;9.95;100.00;100366.50;5093741;28;20036;-65
2023/12/24 07:20:06;;;;;;;3.38;2.10;;;;;;;9.98;100.00;100370.59;5076458;28;20041;-66
2023/12/24 07:22:54;;;;;;;1.80;1.70;;;;;;;9.98;100.00;100368.69;5087855;28;20040;-66
2023/12/24 07:25:42;;;;;;;1.38;1.38;;;;;;;9.99;100.00;100375.75;5093577;28;20040;-67
2023/12/24 07:28:30;;;;;;;1.58;1.48;;;;;;;9.99;100.00;100372.22;5079154;28;20040;-66
2023/12/24 07:31:18;;;;;;;2.10;1.90;;;;;;;10.01;100.00;100370.88;5071770;28;20052;-67
2023/12/24 07:34:06;;;;;;;1.90;1.80;;;;;;;10.01;100.00;100373.59;5078180;28;20051;-66
2023/12/24 07:36:54;;;;;;;2.10;1.90;;;;;;;10.01;100.00;100372.78;5111432;28;20047;-65
2023/12/24 07:39:42;;;;;;;2.28;1.67;;;;;;;10.01;100.00;100372.78;5095052;28;20046;-66
2023/12/24 07:42:30;;;;;;;1.80;1.70;;;;;;;10.02;100.00;100371.69;5062081;28;20040;-65
2023/12/24 07:45:19;;;;;;;5.28;2.35;;;;;;;10.01;100.00;100372.78;5094563;28;20036;-67
2023/12/24 07:48:08;;;;;;;3.13;2.20;;;;;;;10.03;100.00;100376.03;5096474;28;20067;-61
2023/12/24 07:50:57;;;;;;;1.90;1.60;;;;;;;10.02;100.00;100379.84;5112689;28;20084;-64
2023/12/24 07:53:45;;;;;;;1.90;1.80;;;;;;;10.00;100.00;100365.69;5096533;28;20047;-66
2023/12/24 07:56:32;;;;;;;1.77;1.67;;;;;;;10.00;100.00;100368.41;5093540;28;20052;-59
2023/12/24 07:59:20;;;;;;;2.33;1.70;;;;;;;9.99;100.00;100362.16;5111468;28;20055;-64
2023/12/24 08:02:08;;;;;;;1.60;1.50;;;;;;;10.01;100.00;100361.88;5081243;28;20055;-65
2023/12/24 08:04:56;;;;;;;1.60;1.50;;;;;;;10.02;100.00;100345.25;5094110;28;20059;-66
2023/12/24 08:07:45;;;;;;;1.75;1.65;;;;;;;10.03;100.00;100357.00;5092877;28;20048;-67
2023/12/24 08:10:32;;;;;;;2.25;1.70;;;;;;;10.08;100.00;100358.84;5089173;28;20048;-65
2023/12/24 08:13:21;;;;;;;2.45;1.55;;;;;;;10.08;100.00;100359.69;5078342;28;20465;-64
2023/12/24 08:16:09;;;;;;;2.53;1.75;;;;;;;10.10;100.00;100360.25;5092221;28;20177;-66
2023/12/24 08:18:57;;;;;;;4.45;1.70;;;;;;;10.10;100.00;100359.41;5109338;28;20051;-67
2023/12/24 08:21:45;;;;;;;1.33;1.33;;;;;;;10.10;100.00;100360.25;5092500;28;20132;-67
2023/12/24 08:24:33;;;;;;;2.05;1.73;;;;;;;10.11;100.00;100356.41;5063104;28;20127;-67
2023/12/24 08:27:22;;;;;;;1.52;1.40;;;;;;;10.12;100.00;100352.59;5076410;28;20509;-66
2023/12/24 08:30:10;;;;;;;3.47;2.10;;;;;;;10.15;100.00;100348.50;5090979;28;20123;-67
2023/12/24 08:32:58;;;;;;;1.50;1.40;;;;;;;10.12;100.00;100341.69;5078818;28;20128;-66
2023/12/24 08:35:47;;;;;;;1.85;1.52;;;;;;;10.10;100.00;100343.91;5092439;28;20791;-67
2023/12/24 08:38:35;;;;;;;2.05;1.55;;;;;;;10.10;100.00;100335.75;5093364;28;20411;-65
2023/12/24 08:41:23;;;;;;;2.30;2.08;;;;;;;10.10;100.00;100340.34;5076697;28;20044;-66
2023/12/24 08:44:12;;;;;;;2.53;2.08;;;;;;;10.10;100.00;100346.63;4363108;28;10000436;-68
2023/12/24 08:47:00;;;;;;;2.40;2.20;;;;;;;10.08;100.00;100337.91;5088223;28;20058;-68
2023/12/24 08:49:48;;;;;;;2.30;2.20;;;;;;;10.09;100.00;100350.44;5073415;28;20567;-67
2023/12/24 08:52:36;;;;;;;2.00;1.90;;;;;;;10.11;100.00;100331.91;5089544;28;20552;-67
2023/12/24 08:55:24;;;;;;;2.30;2.10;;;;;;;10.14;100.00;100339.53;5059639;28;20515;-67
2023/12/24 08:58:12;;;;;;;2.38;2.15;;;;;;;10.15;100.00;100343.88;5087997;28;20382;-67
2023/12/24 09:01:00;;;;;;;2.47;1.92;;;;;;;10.16;100.00;100348.22;5087997;28;20178;-67
2023/12/24 09:03:48;;;;;;;3.97;2.40;;;;;;;10.19;100.00;100355.84;5088799;28;20422;-67
2023/12/24 09:06:39;;;;;;;6.97;2.45;;;;;;;10.19;100.00;100366.72;5073760;28;20496;-68
2023/12/24 09:09:27;;;;;;;2.10;1.92;;;;;;;10.19;100.00;100368.63;5089225;28;20165;-68
2023/12/24 09:12:15;;;;;;;1.80;1.70;;;;;;;10.19;100.00;100369.44;5085774;28;20151;-67
2023/12/24 09:15:04;;;;;;;4.82;2.33;;;;;;;10.21;100.00;100369.19;5088792;28;20158;-67
2023/12/24 09:17:52;;;;;;;1.90;1.65;;;;;;;10.21;100.00;100361.00;5072976;28;20059;-66
2023/12/24 09:20:40;;;;;;;5.88;2.95;;;;;;;10.23;100.00;100367.81;5087226;28;20123;-67
2023/12/24 09:23:28;;;;;;;1.75;1.65;;;;;;;10.22;100.00;100365.34;5073332;28;20047;-67
2023/12/24 09:26:16;;;;;;;5.05;2.30;;;;;;;10.23;100.00;100356.91;5085435;28;20097;-67
2023/12/24 09:29:04;;;;;;;4.70;2.50;;;;;;;10.24;100.00;100361.25;5071604;28;20060;-67
2023/12/24 09:31:53;;;;;;;7.72;3.05;;;;;;;10.27;100.00;100357.19;5070440;28;20442;-66
2023/12/24 09:34:41;;;;;;;5.32;2.35;;;;;;;10.30;100.00;100350.41;5087112;28;20119;-67
2023/12/24 09:37:30;;;;;;;2.90;1.85;;;;;;;10.30;100.00;100350.41;5072227;28;20051;-67
2023/12/24 09:40:18;;;;;;;6.85;2.78;;;;;;;10.32;100.00;100359.09;5060246;28;20044;-66
2023/12/24 09:43:08;;;;;;;4.50;2.00;;;;;;;10.34;100.00;100348.75;5080646;28;20526;-66
2023/12/24 09:45:56;;;;;;;2.67;2.20;;;;;;;10.33;100.00;100349.84;5055453;28;20055;-67
2023/12/24 09:48:44;;;;;;;2.53;2.33;;;;;;;10.34;100.00;100348.75;5060486;28;20055;-67
2023/12/24 09:51:35;;;;;;;3.42;2.15;;;;;;;10.34;100.00;100351.47;5074228;28;20051;-67
2023/12/24 09:54:23;;;;;;;9.10;3.22;;;;;;;10.36;100.00;100343.84;5059007;28;20081;-66
2023/12/24 09:57:11;;;;;;;3.75;1.70;;;;;;;10.36;100.00;100349.28;5079739;28;20063;-66
2023/12/24 09:59:59;;;;;;;4.03;2.30;;;;;;;10.37;100.00;100338.13;5073245;28;20048;-66
2023/12/24 10:02:47;;;;;;;12.43;4.43;;;;;;;10.40;100.00;100336.75;5085997;28;20068;-67
2023/12/24 10:05:59;;;;;;;4.28;2.45;;;;;;;10.41;100.00;100358.28;5087639;28;20507;-67
2023/12/24 10:08:54;;;;;;;6.75;2.83;;;;;;;10.41;100.00;100355.53;5072748;28;20056;-67
2023/12/24 10:11:42;;;;;;;4.20;2.55;;;;;;;10.40;100.00;100369.44;5064260;28;20049;-66
2023/12/24 10:14:31;;;;;;;11.85;4.03;;;;;;;10.44;100.00;100357.69;5067440;28;20056;-67
2023/12/24 10:17:28;;;;;;;12.30;4.43;;;;;;;10.48;100.00;100352.50;5087963;28;20073;-67
2023/12/24 10:20:16;;;;;;;5.90;3.38;;;;;;;10.50;100.00;100344.06;5088494;28;20078;-67
2023/12/24 10:23:07;;;;;;;7.57;3.75;;;;;;;10.48;100.00;100346.25;5087147;28;20526;-67
2023/12/24 10:26:06;;;;;;;19.17;6.40;;;;;;;10.51;100.00;100346.50;5086811;28;20213;-66
2023/12/24 10:28:54;;;;;;;9.50;3.95;;;;;;;10.53;100.00;100343.50;5087288;28;20083;-66
2023/12/24 10:31:51;;;;;;;11.05;4.80;;;;;;;10.56;100.00;100332.03;5072882;28;20040;-66
2023/12/24 10:34:39;;;;;;;13.45;5.53;;;;;;;10.59;100.00;100342.38;5041767;28;20051;-67
2023/12/24 10:37:29;;;;;;;12.82;4.68;;;;;;;10.58;100.00;100329.84;5056052;28;20071;-68
2023/12/24 10:40:17;;;;;;;12.02;5.03;;;;;;;10.62;100.00;100339.91;5091922;28;20037;-66
2023/12/24 10:43:05;;;;;;;20.05;10.05;;;;;;;10.61;100.00;100330.13;5084480;28;20048;-67
2023/12/24 10:45:53;;;;;;;12.15;5.75;;;;;;;10.62;100.00;100334.47;5088817;28;20036;-66
2023/12/24 10:48:41;;;;;;;13.70;6.07;;;;;;;10.62;100.00;100318.09;5094811;28;20577;-64
2023/12/24 10:51:29;;;;;;;17.52;7.30;;;;;;;10.63;100.00;100317.03;5061824;28;20048;-66
2023/12/24 10:54:18;;;;;;;13.90;6.03;;;;;;;10.66;100.00;100313.75;5074182;28;20489;-66
2023/12/24 10:57:12;;;;;;;12.07;6.50;;;;;;;10.68;100.00;100307.19;5060615;28;20052;-66
2023/12/24 11:00:12;;;;;;;13.57;6.00;;;;;;;10.69;100.00;100314.28;5074886;28;20045;-66
2023/12/24 11:03:01;;;;;;;12.98;6.45;;;;;;;10.69;100.00;100304.19;5073102;28;20413;-65
2023/12/24 11:05:49;;;;;;;15.23;7.15;;;;;;;10.71;100.00;100301.19;5074824;28;20045;-67
2023/12/24 11:08:37;;;;;;;12.82;6.50;;;;;;;10.75;100.00;100302.22;5059094;28;20055;-67
2023/12/24 11:11:25;;;;;;;14.63;6.85;;;;;;;10.76;100.00;100287.53;5073765;28;20045;-65
2023/12/24 11:14:36;;;;;;;15.13;6.20;;;;;;;10.76;100.00;100295.72;5047653;28;20045;-66
2023/12/24 11:17:34;;;;;;;14.43;6.82;;;;;;;10.79;100.00;100295.94;5059431;28;20097;-67
2023/12/24 11:20:25;;;;;;;12.93;6.68;;;;;;;10.80;100.00;100278.50;5087982;28;20519;-65
2023/12/24 11:23:16;;;;;;;13.20;6.65;;;;;;;10.82;100.00;100280.94;5095220;28;20496;-65
2023/12/24 11:26:27;;;;;;;12.43;5.88;;;;;;;10.82;100.00;100294.56;5059363;28;20464;-65
2023/12/24 11:29:41;;;;;;;12.07;6.18;;;;;;;10.82;100.00;100292.66;5073686;28;20189;-65
2023/12/24 11:32:30;;;;;;;10.35;6.22;;;;;;;10.82;100.00;100279.03;5073032;28;20087;-65
2023/12/24 11:35:52;;;;;;;13.05;6.13;;;;;;;10.84;100.00;100270.56;5072780;28;20051;-66
2023/12/24 11:38:41;;;;;;;12.13;5.35;;;;;;;10.87;100.00;100276.28;5073901;28;20044;-65
2023/12/24 11:41:30;;;;;;;8.77;4.22;;;;;;;10.87;100.00;100275.44;5058897;28;20048;-65
2023/12/24 11:44:18;;;;;;;5.65;3.35;;;;;;;10.88;100.00;100258.00;5074578;28;20119;-66
2023/12/24 11:47:17;;;;;;;13.23;5.05;;;;;;;10.92;100.00;100250.91;5074698;28;20055;-66
2023/12/24 11:50:06;;;;;;;6.95;3.33;;;;;;;10.91;100.00;100251.97;5073876;28;20087;-66
2023/12/24 11:52:54;;;;;;;7.38;3.13;;;;;;;10.92;100.00;100264.53;5060328;28;20098;-66
2023/12/24 11:55:42;;;;;;;4.55;2.30;;;;;;;10.92;100.00;100253.63;5060607;28;20057;-66
2023/12/24 11:58:30;;;;;;;4.95;2.33;;;;;;;10.91;100.00;100251.97;5068287;28;20036;-64
2023/12/24 12:01:25;;;;;;;5.43;2.42;;;;;;;10.91;100.00;100243.81;5099010;28;20050;-62
2023/12/24 12:04:13;;;;;;;6.85;2.70;;;;;;;10.93;100.00;100244.34;5091558;28;20052;-61
2023/12/24 12:07:01;;;;;;;6.25;2.75;;;;;;;10.93;100.00;100238.09;5091272;28;20055;-64
2023/12/24 12:09:49;;;;;;;9.95;4.15;;;;;;;10.93;100.00;100240.81;5085691;28;20056;-65
2023/12/24 12:12:37;;;;;;;5.18;2.38;;;;;;;10.91;100.00;100229.38;5103394;28;20044;-60
2023/12/24 12:15:26;;;;;;;5.18;2.10;;;;;;;10.92;100.00;100229.09;5105089;28;20074;-63
2023/12/24 12:18:16;;;;;;;4.18;2.60;;;;;;;10.95;100.00;100225.78;5092150;28;20055;-64
2023/12/24 12:21:04;;;;;;;3.15;2.10;;;;;;;10.96;100.00;100221.16;5099345;28;20128;-66
2023/12/24 12:23:52;;;;;;;4.00;1.90;;;;;;;10.94;100.00;100218.69;5066401;28;20500;-65
2023/12/24 12:26:40;;;;;;;5.07;2.38;;;;;;;10.98;100.00;100219.75;5094801;28;20052;-65
2023/12/24 12:29:28;;;;;;;3.05;1.98;;;;;;;10.98;100.00;100211.59;5094980;28;20525;-66
2023/12/24 12:32:16;;;;;;;3.42;2.10;;;;;;;11.00;100.00;100212.13;5063500;28;20055;-65
2023/12/24 12:35:05;;;;;;;3.45;2.33;;;;;;;10.98;100.00;100217.03;5063698;28;20131;-65
2023/12/24 12:37:53;;;;;;;4.75;2.25;;;;;;;10.98;100.00;100202.59;5078024;28;20045;-66
2023/12/24 12:40:41;;;;;;;3.35;2.20;;;;;;;10.98;100.00;100208.84;5059152;28;20094;-66
2023/12/24 12:43:36;;;;;;;3.42;2.22;;;;;;;10.98;100.00;100197.16;5074125;28;20436;-63
2023/12/24 12:46:23;;;;;;;5.22;2.28;;;;;;;10.98;100.00;100186.25;5072862;28;20560;-65
2023/12/24 12:49:11;;;;;;;5.32;2.65;;;;;;;11.00;100.00;100184.06;5063484;28;20543;-63
2023/12/24 12:51:59;;;;;;;2.78;1.80;;;;;;;11.01;100.00;100185.66;5093551;28;20059;-65
2023/12/24 12:54:47;;;;;;;3.17;1.92;;;;;;;11.01;100.00;100178.28;5092610;28;20056;-66
2023/12/24 12:57:36;;;;;;;3.72;2.08;;;;;;;11.07;100.00;100168.19;5092010;28;20086;-66
2023/12/24 13:00:25;;;;;;;2.83;2.03;;;;;;;11.07;100.00;100166.25;5064322;28;20136;-66